createdAt,value
2023-06-19T05:11:37.830Z,96757.34
2023-06-19T05:13:40.726Z,96759.75
2023-06-19T05:15:43.607Z,96771.69
2023-06-19T05:17:47.765Z,96769.63
2023-06-19T05:19:51.454Z,96765.69
2023-06-19T05:21:54.312Z,96762.59
2023-06-19T05:23:57.191Z,96764.38
2023-06-19T05:25:59.984Z,96769.13
2023-06-19T05:28:06.160Z,96763.63
2023-06-19T05:30:10.457Z,96770.88
2023-06-19T05:32:13.346Z,96769.13
2023-06-19T05:34:16.262Z,96762.16
2023-06-19T05:36:19.195Z,96765.53
2023-06-19T05:38:22.142Z,96760.78
2023-06-19T05:40:25.115Z,96769.63
2023-06-19T05:42:28.197Z,96769.84
2023-06-19T05:44:32.378Z,96775.19
2023-06-19T05:46:35.226Z,96768.09
2023-06-19T05:48:38.065Z,96778.03
2023-06-19T05:50:40.909Z,96782.78
2023-06-19T05:52:44.440Z,96783.50
2023-06-19T05:54:47.322Z,96782.63
2023-06-19T05:56:51.585Z,96783.63
2023-06-19T05:58:54.430Z,96786.53
2023-06-19T06:00:59.789Z,96777.81
2023-06-19T06:03:03.364Z,96788.88
2023-06-19T06:05:07.262Z,96785.84
2023-06-19T06:07:10.564Z,96776.63
2023-06-19T06:09:14.147Z,96785.28
2023-06-19T06:11:17.061Z,96779.84
2023-06-19T06:13:20.404Z,96782.25
2023-06-19T06:15:23.436Z,96782.50
2023-06-19T06:17:27.664Z,96787.50
2023-06-19T06:19:33.031Z,96783.91
2023-06-19T06:21:36.149Z,96784.91
2023-06-19T06:23:39.228Z,96788.63
2023-06-19T06:25:42.141Z,96791.88
2023-06-19T06:27:45.350Z,96788.53
2023-06-19T06:29:48.134Z,96790.66
2023-06-19T06:31:53.605Z,96792.75
2023-06-19T06:33:57.896Z,96796.78
2023-06-19T06:36:00.796Z,96795.56
2023-06-19T06:38:03.780Z,96802.22
2023-06-19T06:40:10.318Z,96789.63
2023-06-19T06:42:12.933Z,96792.31
2023-06-19T06:44:15.931Z,96790.56
2023-06-19T06:46:18.834Z,96794.28
2023-06-19T06:48:22.595Z,96798.81
2023-06-19T06:50:27.169Z,96797.91
2023-06-19T06:52:32.040Z,96792.97
2023-06-19T06:54:35.028Z,96795.59
2023-06-19T06:56:38.130Z,96799.28
2023-06-19T06:58:42.156Z,96783.50
2023-06-19T07:00:45.127Z,96792.97
2023-06-19T07:02:49.288Z,96797.78
2023-06-19T07:04:53.459Z,96787.41
2023-06-19T07:06:59.102Z,96788.22
2023-06-19T07:09:02.073Z,96793.78
2023-06-19T07:11:08.066Z,96786.22
2023-06-19T07:13:10.908Z,96781.38
2023-06-19T07:15:14.011Z,96794.97
2023-06-19T07:17:19.004Z,96792.56
2023-06-19T07:19:23.281Z,96804.53
2023-06-19T07:21:26.764Z,96801.34
2023-06-19T07:23:31.139Z,96804.34
2023-06-19T07:25:34.961Z,96797.28
2023-06-19T07:27:37.860Z,96800.63
2023-06-19T07:29:40.660Z,96806.06
2023-06-19T07:31:44.730Z,96802.84
2023-06-19T07:33:47.622Z,96801.72
2023-06-19T07:35:50.416Z,96791.66
2023-06-19T07:37:53.458Z,96801.41
2023-06-19T07:40:04.773Z,96791.16
2023-06-19T07:42:08.121Z,96795.81
2023-06-19T07:44:11.016Z,96786.94
2023-06-19T07:46:14.354Z,96794.72
2023-06-19T07:48:18.130Z,96795.00
2023-06-19T07:50:21.591Z,96791.75
2023-06-19T07:52:25.073Z,96789.63
2023-06-19T07:54:28.096Z,96789.16
2023-06-19T07:56:33.609Z,96794.38
2023-06-19T07:58:38.784Z,96787.94
2023-06-19T08:00:41.773Z,96786.13
2023-06-19T08:02:44.959Z,96784.53
2023-06-19T08:04:48.234Z,96790.94
2023-06-19T08:06:51.304Z,96791.97
2023-06-19T08:08:54.032Z,96787.03
2023-06-19T08:10:59.762Z,96776.47
2023-06-19T08:13:04.091Z,96781.00
2023-06-19T08:15:10.257Z,96775.88
2023-06-19T08:17:13.144Z,96778.28
2023-06-19T08:19:16.238Z,96780.38
2023-06-19T08:21:19.345Z,96775.19
2023-06-19T08:23:22.439Z,96771.25
2023-06-19T08:25:25.405Z,96774.47
2023-06-19T08:27:28.396Z,96773.66
2023-06-19T08:29:35.222Z,96779.72
2023-06-19T08:31:38.156Z,96775.88
2023-06-19T08:33:41.300Z,96787.25
2023-06-19T08:35:45.531Z,96783.41
2023-06-19T08:37:48.438Z,96797.81
2023-06-19T08:39:51.453Z,96784.84
2023-06-19T08:41:55.110Z,96789.16
2023-06-19T08:43:59.124Z,96787.56
2023-06-19T08:46:11.776Z,96784.03
2023-06-19T08:48:18.717Z,96783.41
2023-06-19T08:50:22.351Z,96784.75
2023-06-19T08:52:25.624Z,96783.94
2023-06-19T08:54:28.537Z,96780.13
2023-06-19T08:56:34.977Z,96782.84
2023-06-19T08:58:38.257Z,96782.53
2023-06-19T09:00:41.379Z,96779.31
2023-06-19T09:02:54.786Z,96790.69
2023-06-19T09:05:13.693Z,96776.47
2023-06-19T09:07:16.938Z,96785.94
2023-06-19T09:09:22.501Z,96785.34
2023-06-19T09:11:25.375Z,96790.97
2023-06-19T09:13:29.793Z,96783.44
2023-06-19T09:15:34.006Z,96782.91
2023-06-19T09:17:36.966Z,96773.94
2023-06-19T09:19:50.054Z,96778.00
2023-06-19T09:21:54.010Z,96775.78
2023-06-19T09:24:25.065Z,96773.25
2023-06-19T09:26:30.773Z,96754.13
2023-06-19T09:28:37.461Z,96759.16
2023-06-19T09:30:41.651Z,96760.38
2023-06-19T09:32:45.334Z,96759.03
2023-06-19T09:34:52.203Z,96755.81
2023-06-19T09:36:56.159Z,96747.50
2023-06-19T09:39:01.765Z,96754.72
2023-06-19T09:41:08.379Z,96752.50
2023-06-19T09:43:12.876Z,96742.88
2023-06-19T09:45:20.097Z,96738.22
2023-06-19T09:47:27.362Z,96751.19
2023-06-19T09:49:34.435Z,96750.09
2023-06-19T09:51:45.718Z,96751.50
2023-06-19T09:53:50.238Z,96759.66
2023-06-19T09:55:53.407Z,96756.75
2023-06-19T09:58:33.682Z,96756.53
2023-06-19T10:00:38.241Z,96746.59
2023-06-19T10:02:43.156Z,96750.13
2023-06-19T10:04:47.995Z,96746.09
2023-06-19T10:06:52.451Z,96753.16
2023-06-19T10:08:55.698Z,96748.31
2023-06-19T10:10:59.583Z,96748.03
2023-06-19T10:13:14.877Z,96742.09
2023-06-19T10:15:19.916Z,96737.47
2023-06-19T10:17:23.188Z,96743.22
2023-06-19T10:19:27.043Z,96739.97
2023-06-19T10:21:30.588Z,96742.69
2023-06-19T10:23:38.651Z,96743.00
2023-06-19T10:25:42.969Z,96742.81
2023-06-19T10:27:46.475Z,96739.16
2023-06-19T10:30:08.418Z,96740.28
2023-06-19T10:32:24.945Z,96737.88
2023-06-19T10:34:36.035Z,96736.06
2023-06-19T10:36:42.204Z,96753.06
2023-06-19T10:38:49.202Z,96751.94
2023-06-19T10:40:53.095Z,96750.34
2023-06-19T10:42:58.033Z,96745.72
2023-06-19T10:45:08.908Z,96740.88
2023-06-19T10:47:12.334Z,96748.91
2023-06-19T10:49:15.530Z,96738.19
2023-06-19T10:51:21.452Z,96747.63
2023-06-19T10:53:29.709Z,96738.84
2023-06-19T10:55:36.953Z,96739.88
2023-06-19T10:57:42.621Z,96734.31
2023-06-19T10:59:46.167Z,96733.19
2023-06-19T11:01:53.673Z,96729.59
2023-06-19T11:03:57.140Z,96731.50
2023-06-19T11:06:03.917Z,96725.28
2023-06-19T11:08:07.779Z,96731.88
2023-06-19T11:10:23.886Z,96741.53
2023-06-19T11:12:33.403Z,96740.09
2023-06-19T11:14:46.649Z,96731.16
2023-06-19T11:16:52.906Z,96732.13
2023-06-19T11:18:59.234Z,96719.66
2023-06-19T11:21:05.417Z,96729.13
2023-06-19T11:23:08.956Z,96726.91
2023-06-19T11:25:15.518Z,96722.91
2023-06-19T11:27:28.754Z,96712.69
2023-06-19T11:29:37.838Z,96714.78
2023-06-19T11:31:41.525Z,96710.97
2023-06-19T11:33:57.882Z,96706.94
2023-06-19T11:36:04.370Z,96714.47
2023-06-19T11:38:07.613Z,96716.59
2023-06-19T11:40:16.434Z,96715.50
2023-06-19T11:42:21.993Z,96711.97
2023-06-19T11:44:29.676Z,96711.16
2023-06-19T11:46:38.968Z,96693.03
2023-06-19T11:48:53.243Z,96677.78
2023-06-19T11:51:06.738Z,96692.25
2023-06-19T11:53:15.832Z,96682.50
2023-06-19T11:55:24.928Z,96679.16
2023-06-19T11:57:37.190Z,96665.88
2023-06-19T11:59:45.574Z,96671.00
2023-06-19T12:02:04.058Z,96670.50
2023-06-19T12:04:11.041Z,96663.28
2023-06-19T12:06:14.946Z,96671.63
2023-06-19T12:08:18.526Z,96671.94
2023-06-19T12:10:22.781Z,96675.94
2023-06-19T12:12:27.200Z,96676.75
2023-06-19T12:14:30.850Z,96669.69
2023-06-19T12:16:37.211Z,96671.13
2023-06-19T12:18:42.472Z,96659.88
2023-06-19T12:20:51.188Z,96666.31
2023-06-19T12:22:55.367Z,96656.84
2023-06-19T12:24:58.588Z,96656.34
2023-06-19T12:27:01.852Z,96648.66
2023-06-19T12:29:04.965Z,96652.03
2023-06-19T12:31:07.987Z,96647.72
2023-06-19T12:33:13.427Z,96655.88
2023-06-19T12:35:19.200Z,96642.59
2023-06-19T12:37:22.731Z,96630.94
2023-06-19T12:39:26.200Z,96637.16
2023-06-19T12:41:29.821Z,96630.94
2023-06-19T12:43:35.469Z,96627.91
2023-06-19T12:45:38.391Z,96619.75
2023-06-19T12:47:41.502Z,96624.38
2023-06-19T12:49:44.638Z,96615.44
2023-06-19T12:51:52.514Z,96625.19
2023-06-19T12:53:55.695Z,96620.84
2023-06-19T12:56:02.631Z,96614.31
2023-06-19T12:58:08.004Z,96624.69
2023-06-19T13:00:13.933Z,96633.16
2023-06-19T13:02:16.946Z,96626.91
2023-06-19T13:04:20.191Z,96624.69
2023-06-19T13:06:23.239Z,96626.28
2023-06-19T13:08:27.935Z,96621.97
2023-06-19T13:10:30.835Z,96621.66
2023-06-19T13:12:33.824Z,96623.25
2023-06-19T13:14:41.387Z,96625.19
2023-06-19T13:16:47.231Z,96621.34
2023-06-19T13:18:50.725Z,96624.06
2023-06-19T13:20:53.643Z,96619.44
2023-06-19T13:22:56.838Z,96609.38
2023-06-19T13:25:01.037Z,96618.00
2023-06-19T13:27:04.215Z,96617.19
2023-06-19T13:29:07.120Z,96606.84
2023-06-19T13:31:10.165Z,96604.94
2023-06-19T13:33:13.241Z,96599.50
2023-06-19T13:35:16.557Z,96596.47
2023-06-19T13:37:19.424Z,96594.56
2023-06-19T13:39:22.355Z,96594.56
2023-06-19T13:41:28.083Z,96586.41
2023-06-19T13:43:31.537Z,96602.38
2023-06-19T13:45:34.959Z,96594.22
2023-06-19T13:47:41.849Z,96584.97
2023-06-19T13:49:44.743Z,96589.78
2023-06-19T13:51:47.573Z,96588.38
2023-06-19T13:53:51.543Z,96591.56
2023-06-19T13:55:54.663Z,96590.47
2023-06-19T13:57:59.221Z,96586.63
2023-06-19T14:00:02.626Z,96573.84
2023-06-19T14:02:06.033Z,96573.03
2023-06-19T14:04:09.687Z,96577.66
2023-06-19T14:06:18.616Z,96574.16
2023-06-19T14:08:21.896Z,96570.31
2023-06-19T14:10:24.921Z,96566.00
2023-06-19T14:12:28.598Z,96561.38
2023-06-19T14:14:33.309Z,96554.31
2023-06-19T14:16:36.576Z,96550.00
2023-06-19T14:18:39.676Z,96553.53
2023-06-19T14:20:43.433Z,96552.72
2023-06-19T14:22:46.208Z,96546.97
2023-06-19T14:24:49.364Z,96549.69
2023-06-19T14:26:54.734Z,96552.09
2023-06-19T14:29:07.293Z,96545.53
2023-06-19T14:31:12.302Z,96543.63
2023-06-19T14:33:17.127Z,96538.19
2023-06-19T14:35:20.456Z,96530.03
2023-06-19T14:37:36.882Z,96528.13
2023-06-19T14:39:40.166Z,96520.78
2023-06-19T14:41:43.819Z,96525.91
2023-06-19T14:43:46.701Z,96518.88
2023-06-19T14:45:49.669Z,96514.25
2023-06-19T14:47:54.044Z,96519.34
2023-06-19T14:49:57.073Z,96519.03
2023-06-19T14:52:00.065Z,96525.78
2023-06-19T14:54:03.808Z,96521.47
2023-06-19T14:56:08.357Z,96518.44
2023-06-19T14:58:11.376Z,96508.34
2023-06-19T15:00:15.269Z,96510.75
2023-06-19T15:02:18.314Z,96512.34
2023-06-19T15:04:23.919Z,96508.03
2023-06-19T15:06:27.714Z,96505.31
2023-06-19T15:08:32.419Z,96506.94
2023-06-19T15:10:36.157Z,96501.47
2023-06-19T15:12:39.032Z,96501.47
2023-06-19T15:14:42.235Z,96509.31
2023-06-19T15:16:45.094Z,96506.94
2023-06-19T15:18:48.133Z,96508.22
2023-06-19T15:20:52.496Z,96505.81
2023-06-19T15:22:55.486Z,96508.22
2023-06-19T15:24:58.369Z,96508.69
2023-06-19T15:27:02.359Z,96507.88
2023-06-19T15:29:05.231Z,96510.59
2023-06-19T15:31:09.510Z,96496.22
2023-06-19T15:33:12.455Z,96494.81
2023-06-19T15:35:15.468Z,96490.97
2023-06-19T15:37:19.617Z,96480.09
2023-06-19T15:39:22.452Z,96487.13
2023-06-19T15:41:26.219Z,96499.59
2023-06-19T15:43:31.779Z,96490.34
2023-06-19T15:45:36.301Z,96499.28
2023-06-19T15:47:39.517Z,96491.94
2023-06-19T15:49:47.258Z,96487.28
2023-06-19T15:51:50.059Z,96492.09
2023-06-19T15:53:54.723Z,96487.44
2023-06-19T15:55:57.774Z,96482.00
2023-06-19T15:58:03.129Z,96481.41
2023-06-19T16:00:07.575Z,96474.84
2023-06-19T16:02:10.494Z,96479.16
2023-06-19T16:04:13.416Z,96479.16
2023-06-19T16:06:16.506Z,96471.50
2023-06-19T16:08:19.758Z,96468.75
2023-06-19T16:10:24.349Z,96463.81
2023-06-19T16:12:27.618Z,96464.59
2023-06-19T16:14:30.421Z,96464.28
2023-06-19T16:16:33.287Z,96456.94
2023-06-19T16:18:36.273Z,96450.69
2023-06-19T16:20:39.274Z,96449.56
2023-06-19T16:22:42.096Z,96443.03
2023-06-19T16:24:45.017Z,96445.44
2023-06-19T16:26:49.295Z,96436.94
2023-06-19T16:28:52.852Z,96440.47
2023-06-19T16:30:55.847Z,96431.50
2023-06-19T16:32:58.852Z,96429.28
2023-06-19T16:35:01.693Z,96423.34
2023-06-19T16:37:04.691Z,96420.00
2023-06-19T16:39:08.285Z,96418.88
2023-06-19T16:41:11.034Z,96423.19
2023-06-19T16:43:16.135Z,96421.25
2023-06-19T16:45:19.029Z,96427.50
2023-06-19T16:47:22.115Z,96422.56
2023-06-19T16:49:25.342Z,96421.44
2023-06-19T16:51:28.104Z,96424.16
2023-06-19T16:53:30.982Z,96424.97
2023-06-19T16:55:34.186Z,96423.84
2023-06-19T16:57:37.022Z,96427.38
2023-06-19T16:59:41.184Z,96428.16
2023-06-19T17:01:44.603Z,96427.38
2023-06-19T17:03:47.405Z,96424.31
2023-06-19T17:05:50.376Z,96425.13
2023-06-19T17:07:53.577Z,96433.28
2023-06-19T17:09:56.657Z,96428.97
2023-06-19T17:11:59.434Z,96425.44
2023-06-19T17:14:02.625Z,96427.69
2023-06-19T17:16:06.913Z,96424.78
2023-06-19T17:18:10.443Z,96422.38
2023-06-19T17:20:14.564Z,96425.75
2023-06-19T17:22:17.589Z,96420.63
2023-06-19T17:24:22.264Z,96423.69
2023-06-19T17:26:25.161Z,96419.03
2023-06-19T17:28:28.210Z,96429.91
2023-06-19T17:30:31.278Z,96419.84
2023-06-19T17:32:35.471Z,96429.91
2023-06-19T17:34:38.577Z,96435.34
2023-06-19T17:36:41.893Z,96429.91
2023-06-19T17:38:44.928Z,96436.78
2023-06-19T17:40:48.776Z,96430.53
2023-06-19T17:42:51.817Z,96436.78
2023-06-19T17:44:54.812Z,96437.59
2023-06-19T17:46:58.295Z,96444.97
2023-06-19T17:49:02.917Z,96442.25
2023-06-19T17:51:06.723Z,96436.47
2023-06-19T17:53:09.715Z,96438.88
2023-06-19T17:55:14.321Z,96435.34
2023-06-19T17:57:17.783Z,96431.50
2023-06-19T17:59:20.688Z,96436.94
2023-06-19T18:01:26.631Z,96438.88
2023-06-19T18:03:31.585Z,96438.06
2023-06-19T18:05:39.570Z,96440.31
2023-06-19T18:07:42.729Z,96439.81
2023-06-19T18:09:48.196Z,96443.66
2023-06-19T18:11:51.667Z,96450.22
2023-06-19T18:13:55.101Z,96457.56
2023-06-19T18:16:11.284Z,96453.56
2023-06-19T18:18:15.529Z,96460.59
2023-06-19T18:20:19.054Z,96448.94
2023-06-19T18:22:23.412Z,96461.72
2023-06-19T18:24:26.809Z,96451.97
2023-06-19T18:26:30.668Z,96453.56
2023-06-19T18:28:34.458Z,96450.38
2023-06-19T18:30:37.320Z,96444.44
2023-06-19T18:32:40.555Z,96454.22
2023-06-19T18:34:43.471Z,96447.19
2023-06-19T18:36:46.372Z,96454.22
2023-06-19T18:38:51.273Z,96448.78
2023-06-19T18:40:55.197Z,96447.19
2023-06-19T18:42:58.272Z,96447.47
2023-06-19T18:45:01.269Z,96449.38
2023-06-19T18:47:04.713Z,96448.59
2023-06-19T18:49:08.033Z,96435.31
2023-06-19T18:51:11.112Z,96440.75
2023-06-19T18:53:14.237Z,96448.09
2023-06-19T18:55:19.748Z,96441.06
2023-06-19T18:57:28.676Z,96435.94
2023-06-19T18:59:31.790Z,96433.22
2023-06-19T19:01:35.184Z,96432.44
2023-06-19T19:03:38.366Z,96435.94
2023-06-19T19:05:41.813Z,96430.50
2023-06-19T19:07:45.123Z,96431.63
2023-06-19T19:09:48.209Z,96423.16
2023-06-19T19:11:54.136Z,96435.94
2023-06-19T19:13:58.347Z,96441.38
2023-06-19T19:16:01.241Z,96446.81
2023-06-19T19:18:04.712Z,96453.06
2023-06-19T19:20:10.989Z,96450.66
2023-06-19T19:22:14.530Z,96457.22
2023-06-19T19:24:18.376Z,96451.78
2023-06-19T19:26:21.901Z,96460.75
2023-06-19T19:28:26.728Z,96478.97
2023-06-19T19:30:30.919Z,96481.69
2023-06-19T19:32:34.034Z,96488.72
2023-06-19T19:34:37.392Z,96490.97
2023-06-19T19:36:41.762Z,96495.28
2023-06-19T19:38:45.531Z,96498.00
2023-06-19T19:40:48.594Z,96505.84
2023-06-19T19:42:52.058Z,96513.53
2023-06-19T19:44:56.558Z,96512.72
2023-06-19T19:46:59.658Z,96519.75
2023-06-19T19:49:03.171Z,96546.16
2023-06-19T19:51:06.036Z,96553.97
2023-06-19T19:53:08.791Z,96560.22
2023-06-19T19:55:15.042Z,96571.41
2023-06-19T19:57:18.559Z,96579.56
2023-06-19T19:59:21.762Z,96571.41
2023-06-19T20:01:26.573Z,96564.84
2023-06-19T20:03:30.337Z,96571.41
2023-06-19T20:05:33.307Z,96579.88
2023-06-19T20:07:36.222Z,96591.56
2023-06-19T20:09:39.528Z,96598.13
2023-06-19T20:11:45.710Z,96603.25
2023-06-19T20:13:50.044Z,96606.75
2023-06-19T20:15:53.177Z,96602.44
2023-06-19T20:17:58.058Z,96607.88
2023-06-19T20:20:03.401Z,96618.75
2023-06-19T20:22:07.348Z,96623.06
2023-06-19T20:24:10.910Z,96610.59
2023-06-19T20:26:15.053Z,96616.84
2023-06-19T20:28:18.878Z,96620.66
2023-06-19T20:30:22.208Z,96615.22
2023-06-19T20:32:25.158Z,96640.81
2023-06-19T20:34:30.271Z,96649.56
2023-06-19T20:36:32.829Z,96639.00
2023-06-19T20:38:38.383Z,96645.88
2023-06-19T20:40:42.162Z,96663.63
2023-06-19T20:42:46.601Z,96657.66
2023-06-19T20:44:51.490Z,96672.38
2023-06-19T20:46:54.409Z,96669.97
2023-06-19T20:48:58.084Z,96684.16
2023-06-19T20:51:02.258Z,96688.63
2023-06-19T20:53:05.779Z,96693.03
2023-06-19T20:55:09.974Z,96689.34
2023-06-19T20:57:12.767Z,96694.59
2023-06-19T20:59:15.724Z,96689.28
2023-06-19T21:01:24.391Z,96704.59
2023-06-19T21:03:29.417Z,96725.84
2023-06-19T21:05:32.446Z,96726.13
2023-06-19T21:07:37.070Z,96722.72
2023-06-19T21:09:40.976Z,96718.03
2023-06-19T21:11:44.361Z,96718.94
2023-06-19T21:13:48.072Z,96729.00
2023-06-19T21:15:51.568Z,96724.19
2023-06-19T21:17:55.083Z,96718.06
2023-06-19T21:19:58.627Z,96719.78
2023-06-19T21:22:02.148Z,96724.69
2023-06-19T21:24:08.384Z,96741.25
2023-06-19T21:26:11.433Z,96732.84
